Time;durP1;ratioP1;P1;durP2;ratioP2;P2;SDS_P1;SDS_P2;PMS_P1;PMS_P2;Temp;Humidity;BMP_temperature;BMP_pressure;BME280_temperature;BME280_humidity;BME280_pressure;Samples;Min_cycle;Max_cycle;Signal;HPM_P1;HPM_P2
2022/01/01 00:02:03;;;;;;;;;;;22.10;53.80;;;;;;6344072;27;21002;-45
2022/01/01 00:05:18;;;;;;;;;;;21.90;53.70;;;;;;6319620;27;20147;-43
2022/01/01 00:08:19;;;;;;;;;;;22.00;53.80;;;;;;6328414;27;19974;-44
2022/01/01 00:11:21;;;;;;;;;;;22.00;53.70;;;;;;6339543;27;20376;-44
2022/01/01 00:14:26;;;;;;;;;;;22.30;53.80;;;;;;6338190;27;19923;-43
2022/01/01 00:17:28;;;;;;;;;;;22.30;53.90;;;;;;6316378;27;19931;-45
2022/01/01 00:20:29;;;;;;;;;;;22.30;53.90;;;;;;6317751;27;20162;-43
2022/01/01 00:23:31;;;;;;;;;;;22.20;53.90;;;;;;6323543;27;19931;-43
2022/01/01 00:26:33;;;;;;;;;;;21.90;53.70;;;;;;6301059;27;20339;-43
2022/01/01 00:29:34;;;;;;;;;;;21.90;53.80;;;;;;6317555;27;19923;-43
2022/01/01 00:32:35;;;;;;;;;;;22.10;53.90;;;;;;6317693;27;20050;-43
2022/01/01 00:35:38;;;;;;;;;;;21.90;53.70;;;;;;6332656;27;20347;-43
2022/01/01 00:38:39;;;;;;;;;;;21.90;53.70;;;;;;6319881;27;20023;-43
2022/01/01 00:41:41;;;;;;;;;;;21.80;53.70;;;;;;6317855;27;20326;-45
2022/01/01 00:44:43;;;;;;;;;;;24.00;54.80;;;;;;6321442;27;20641;-43
2022/01/01 00:47:44;;;;;;;;;;;22.30;53.90;;;;;;6330291;27;20540;-43
2022/01/01 00:50:46;;;;;;;;;;;21.70;53.60;;;;;;6337988;27;19923;-43
2022/01/01 00:53:47;;;;;;;;;;;22.10;53.80;;;;;;6322269;27;20058;-44
2022/01/01 00:56:49;;;;;;;;;;;21.90;53.70;;;;;;6325359;27;19982;-43
2022/01/01 00:59:50;;;;;;;;;;;21.90;53.70;;;;;;6337826;27;20416;-45
2022/01/01 01:02:52;;;;;;;;;;;22.20;53.90;;;;;;6324713;27;19924;-43
2022/01/01 01:05:53;;;;;;;;;;;22.10;53.90;;;;;;6337538;27;19926;-44
2022/01/01 01:08:58;;;;;;;;;;;22.10;53.90;;;;;;6332680;27;20595;-43
2022/01/01 01:12:00;;;;;;;;;;;22.00;53.80;;;;;;6322118;27;20406;-43
2022/01/01 01:15:03;;;;;;;;;;;22.40;54.00;;;;;;6320872;27;19923;-43
2022/01/01 01:18:04;;;;;;;;;;;22.00;53.70;;;;;;6327920;27;20342;-43
2022/01/01 01:21:06;;;;;;;;;;;22.20;53.90;;;;;;6324559;27;20026;-43
2022/01/01 01:24:08;;;;;;;;;;;21.80;53.70;;;;;;6343550;27;20042;-43
2022/01/01 01:27:10;;;;;;;;;;;22.20;53.80;;;;;;6333243;27;19963;-44
2022/01/01 01:30:13;;;;;;;;;;;21.90;53.70;;;;;;6326840;27;19923;-43
2022/01/01 01:33:15;;;;;;;;;;;22.00;53.70;;;;;;6322743;27;20817;-43
2022/01/01 01:36:16;;;;;;;;;;;21.90;53.70;;;;;;6323868;27;20353;-43
2022/01/01 01:39:17;;;;;;;;;;;21.80;53.70;;;;;;6323995;27;20254;-43
2022/01/01 01:42:19;;;;;;;;;;;21.70;53.60;;;;;;6327612;27;19935;-43
2022/01/01 01:45:23;;;;;;;;;;;22.00;53.70;;;;;;6348408;27;20457;-43
2022/01/01 01:48:24;;;;;;;;;;;22.30;53.90;;;;;;6322101;27;20503;-43
2022/01/01 01:51:26;;;;;;;;;;;22.20;53.80;;;;;;6324691;27;20046;-43
2022/01/01 01:54:27;;;;;;;;;;;21.80;53.70;;;;;;6327318;27;20688;-43
2022/01/01 01:57:30;;;;;;;;;;;21.90;53.70;;;;;;6327311;27;20701;-43
2022/01/01 02:03:48;;;;;;;;;;;21.60;53.60;;;;;;6324475;27;21090;-44
2022/01/01 02:06:49;;;;;;;;;;;21.80;53.70;;;;;;6346763;27;20741;-43
2022/01/01 02:09:51;;;;;;;;;;;21.70;53.60;;;;;;6329876;27;19923;-43
2022/01/01 02:12:53;;;;;;;;;;;21.70;53.70;;;;;;6330376;27;19927;-43
2022/01/01 02:16:14;;;;;;;;;;;22.00;53.80;;;;;;6339761;27;19924;-43
2022/01/01 02:19:20;;;;;;;;;;;22.20;53.80;;;;;;6341455;27;20410;-43
2022/01/01 02:22:22;;;;;;;;;;;21.90;53.70;;;;;;6344369;27;20754;-43
2022/01/01 02:25:24;;;;;;;;;;;21.80;53.70;;;;;;6328874;27;20038;-43
2022/01/01 02:28:25;;;;;;;;;;;21.90;53.80;;;;;;6333283;27;20011;-43
2022/01/01 02:31:26;;;;;;;;;;;22.20;53.90;;;;;;6326134;27;20030;-44
2022/01/01 02:34:28;;;;;;;;;;;21.80;53.70;;;;;;6310446;27;20460;-43
2022/01/01 02:37:31;;;;;;;;;;;21.80;53.60;;;;;;6345351;27;19927;-43
2022/01/01 02:40:33;;;;;;;;;;;22.10;53.80;;;;;;6324168;27;20355;-43
2022/01/01 02:43:42;;;;;;;;;;;21.70;53.60;;;;;;6328235;27;21194;-44
2022/01/01 02:46:44;;;;;;;;;;;21.90;53.60;;;;;;6327041;27;20360;-43
2022/01/01 02:49:45;;;;;;;;;;;22.10;53.80;;;;;;6324244;27;20854;-44
2022/01/01 02:52:47;;;;;;;;;;;21.90;53.70;;;;;;6338905;27;20466;-44
2022/01/01 02:55:49;;;;;;;;;;;21.90;53.70;;;;;;6338904;27;20332;-43
2022/01/01 02:58:50;;;;;;;;;;;21.80;53.70;;;;;;6341705;27;19933;-43
2022/01/01 03:01:51;;;;;;;;;;;21.70;53.50;;;;;;6322201;27;19923;-43
2022/01/01 03:04:53;;;;;;;;;;;21.80;53.70;;;;;;6323399;27;19924;-43
2022/01/01 03:07:55;;;;;;;;;;;22.00;53.70;;;;;;6344626;27;20073;-43
2022/01/01 03:10:56;;;;;;;;;;;21.80;53.60;;;;;;6326817;27;19962;-44
2022/01/01 03:13:57;;;;;;;;;;;21.50;53.50;;;;;;6340068;27;19960;-43
2022/01/01 03:16:59;;;;;;;;;;;21.70;53.60;;;;;;6338385;27;20025;-43
2022/01/01 03:20:00;;;;;;;;;;;22.20;53.80;;;;;;6321518;27;20502;-43
2022/01/01 03:23:03;;;;;;;;;;;22.00;53.70;;;;;;6327541;27;20427;-44
2022/01/01 03:26:05;;;;;;;;;;;21.60;53.40;;;;;;6324673;27;19927;-43
2022/01/01 03:29:06;;;;;;;;;;;21.80;53.60;;;;;;6332648;27;19927;-43
2022/01/01 03:32:08;;;;;;;;;;;21.90;53.60;;;;;;6347007;27;19987;-44
2022/01/01 03:35:09;;;;;;;;;;;21.50;53.40;;;;;;6326210;27;20487;-45
2022/01/01 03:38:11;;;;;;;;;;;21.60;53.50;;;;;;6322386;27;19955;-43
2022/01/01 03:41:13;;;;;;;;;;;21.90;53.60;;;;;;6321850;27;19955;-43
2022/01/01 03:44:14;;;;;;;;;;;21.80;53.50;;;;;;6326881;27;20426;-43
2022/01/01 03:47:15;;;;;;;;;;;21.80;53.60;;;;;;6342360;27;20434;-44
2022/01/01 03:50:16;;;;;;;;;;;21.90;53.60;;;;;;6334309;27;20517;-46
2022/01/01 03:53:19;;;;;;;;;;;21.50;53.40;;;;;;6324370;27;20431;-43
2022/01/01 03:56:20;;;;;;;;;;;21.50;53.40;;;;;;6333443;27;19966;-43
2022/01/01 03:59:21;;;;;;;;;;;22.00;53.70;;;;;;6328166;27;19923;-43
2022/01/01 04:02:22;;;;;;;;;;;21.60;53.50;;;;;;6336396;27;19927;-43
2022/01/01 04:05:24;;;;;;;;;;;21.70;53.60;;;;;;6340913;27;19923;-43
2022/01/01 04:08:28;;;;;;;;;;;21.70;53.60;;;;;;6348308;27;20281;-43
2022/01/01 04:11:30;;;;;;;;;;;21.70;53.50;;;;;;6345873;27;20598;-43
2022/01/01 04:14:31;;;;;;;;;;;21.50;53.40;;;;;;6327691;27;20018;-44
2022/01/01 04:17:36;;;;;;;;;;;21.40;53.40;;;;;;6324085;27;19923;-43
2022/01/01 04:20:38;;;;;;;;;;;21.60;53.50;;;;;;6321971;27;19923;-45
2022/01/01 04:23:40;;;;;;;;;;;21.80;53.50;;;;;;6316415;27;19927;-45
2022/01/01 04:26:42;;;;;;;;;;;21.50;53.40;;;;;;6313578;27;19928;-42
2022/01/01 04:29:44;;;;;;;;;;;21.50;53.40;;;;;;6323660;27;20371;-43
2022/01/01 04:32:45;;;;;;;;;;;21.60;53.50;;;;;;6323200;27;20050;-43
2022/01/01 04:35:47;;;;;;;;;;;21.90;53.60;;;;;;6322090;27;20807;-44
2022/01/01 04:38:49;;;;;;;;;;;21.40;53.30;;;;;;6328837;27;20018;-43
2022/01/01 04:41:50;;;;;;;;;;;21.60;54.00;;;;;;6337319;27;19927;-44
2022/01/01 04:44:51;;;;;;;;;;;21.60;53.40;;;;;;6339233;27;20042;-44
2022/01/01 04:47:53;;;;;;;;;;;21.90;53.60;;;;;;6322100;27;19929;-43
2022/01/01 04:50:54;;;;;;;;;;;21.90;53.60;;;;;;6326095;27;19924;-44
2022/01/01 04:54:00;;;;;;;;;;;21.80;53.50;;;;;;6326934;27;20394;-44
2022/01/01 04:57:02;;;;;;;;;;;21.40;53.30;;;;;;6336462;27;19927;-43
2022/01/01 05:00:04;;;;;;;;;;;21.50;53.30;;;;;;6346485;27;19951;-42
2022/01/01 05:03:05;;;;;;;;;;;21.80;53.40;;;;;;6332155;27;20242;-43
2022/01/01 05:06:07;;;;;;;;;;;21.50;53.30;;;;;;6333656;27;19927;-44
2022/01/01 05:09:09;;;;;;;;;;;21.30;53.30;;;;;;6330267;27;19946;-43
2022/01/01 05:12:10;;;;;;;;;;;21.80;53.50;;;;;;6322580;27;20042;-45
2022/01/01 05:15:12;;;;;;;;;;;21.40;53.40;;;;;;6327654;27;20065;-43
2022/01/01 05:18:16;;;;;;;;;;;21.60;53.40;;;;;;6324033;27;20335;-44
2022/01/01 05:21:17;;;;;;;;;;;21.90;53.40;;;;;;6340986;27;20253;-44
2022/01/01 05:24:21;;;;;;;;;;;21.90;53.60;;;;;;6325881;27;20018;-43
2022/01/01 05:27:22;;;;;;;;;;;21.30;53.20;;;;;;6325668;27;20018;-43
2022/01/01 05:30:24;;;;;;;;;;;21.50;53.40;;;;;;6317177;27;19927;-45
2022/01/01 05:33:25;;;;;;;;;;;21.40;53.30;;;;;;6315163;27;19984;-44
2022/01/01 05:36:26;;;;;;;;;;;21.60;53.50;;;;;;6324442;27;19966;-43
2022/01/01 05:39:28;;;;;;;;;;;21.30;53.30;;;;;;6338788;27;20038;-42
2022/01/01 05:42:29;;;;;;;;;;;21.60;53.40;;;;;;6320648;27;19997;-43
2022/01/01 05:45:31;;;;;;;;;;;21.70;53.40;;;;;;6318712;27;19974;-43
2022/01/01 05:48:33;;;;;;;;;;;21.30;53.20;;;;;;6315472;27;19931;-44
2022/01/01 05:51:34;;;;;;;;;;;21.90;53.50;;;;;;6320383;27;20018;-43
2022/01/01 05:54:36;;;;;;;;;;;21.70;53.50;;;;;;6339786;27;20741;-43
2022/01/01 05:57:37;;;;;;;;;;;21.50;53.30;;;;;;6335303;27;20053;-44
2022/01/01 06:00:38;;;;;;;;;;;21.60;53.40;;;;;;6337807;27;19986;-43
2022/01/01 06:03:40;;;;;;;;;;;21.40;53.40;;;;;;6317405;27;20208;-43
2022/01/01 06:06:41;;;;;;;;;;;21.40;53.40;;;;;;6322146;27;20115;-43
2022/01/01 06:09:45;;;;;;;;;;;22.00;53.60;;;;;;6329778;27;20035;-43
2022/01/01 06:12:46;;;;;;;;;;;21.80;53.40;;;;;;6338815;27;20333;-42
2022/01/01 06:15:48;;;;;;;;;;;21.00;53.10;;;;;;6320111;27;19931;-44
2022/01/01 06:18:49;;;;;;;;;;;21.60;53.40;;;;;;6313249;27;19931;-43
2022/01/01 06:21:50;;;;;;;;;;;21.90;53.50;;;;;;6321087;27;20411;-45
2022/01/01 06:24:52;;;;;;;;;;;21.50;53.30;;;;;;6322519;27;20566;-43
2022/01/01 06:27:54;;;;;;;;;;;21.30;53.20;;;;;;6320688;27;19983;-43
2022/01/01 06:30:55;;;;;;;;;;;21.60;53.30;;;;;;6318532;27;20101;-43
2022/01/01 06:33:56;;;;;;;;;;;21.20;53.10;;;;;;6308661;27;20066;-43
2022/01/01 06:37:00;;;;;;;;;;;21.60;53.40;;;;;;6343694;27;20022;-44
2022/01/01 06:40:02;;;;;;;;;;;21.30;53.20;;;;;;6324198;27;20059;-43
2022/01/01 06:43:03;;;;;;;;;;;21.60;53.30;;;;;;6320674;27;19954;-44
2022/01/01 06:46:05;;;;;;;;;;;21.30;53.20;;;;;;6322815;27;19966;-43
2022/01/01 06:49:06;;;;;;;;;;;21.30;53.10;;;;;;6311127;27;20449;-42
2022/01/01 06:52:08;;;;;;;;;;;21.90;53.50;;;;;;6341332;27;20329;-43
2022/01/01 06:55:10;;;;;;;;;;;21.40;53.10;;;;;;6320121;27;20046;-43
2022/01/01 06:58:11;;;;;;;;;;;21.30;53.00;;;;;;6337112;27;20218;-43
2022/01/01 07:01:13;;;;;;;;;;;21.50;53.10;;;;;;6321156;27;20375;-43
2022/01/01 07:04:14;;;;;;;;;;;21.20;53.10;;;;;;6297390;27;20028;-45
2022/01/01 07:07:16;;;;;;;;;;;21.50;53.20;;;;;;6315765;27;20580;-42
2022/01/01 07:10:18;;;;;;;;;;;21.20;53.20;;;;;;6306242;27;20511;-42
2022/01/01 07:13:19;;;;;;;;;;;21.50;53.10;;;;;;6297657;27;20249;-44
2022/01/01 07:16:20;;;;;;;;;;;21.60;53.30;;;;;;6303196;27;20115;-43
2022/01/01 07:19:22;;;;;;;;;;;21.10;53.00;;;;;;6300938;27;20549;-43
2022/01/01 07:22:23;;;;;;;;;;;21.60;53.30;;;;;;6311565;27;19999;-43
2022/01/01 07:25:25;;;;;;;;;;;21.20;53.00;;;;;;6327143;27;20669;-43
2022/01/01 07:28:27;;;;;;;;;;;21.10;53.00;;;;;;6303321;27;20317;-42
2022/01/01 07:31:28;;;;;;;;;;;21.30;53.00;;;;;;6301305;27;20465;-44
2022/01/01 07:34:30;;;;;;;;;;;21.20;53.00;;;;;;6296583;27;20073;-45
2022/01/01 07:37:31;;;;;;;;;;;21.50;53.30;;;;;;6305649;27;20385;-44
2022/01/01 07:40:34;;;;;;;;;;;21.30;53.10;;;;;;6300614;27;19934;-43
2022/01/01 07:43:36;;;;;;;;;;;21.20;52.90;;;;;;6299630;27;19924;-42
2022/01/01 07:46:37;;;;;;;;;;;21.20;53.00;;;;;;6315130;27;19935;-43
2022/01/01 07:49:39;;;;;;;;;;;21.30;53.10;;;;;;6307810;27;20376;-43
2022/01/01 07:52:40;;;;;;;;;;;21.80;53.30;;;;;;6299405;27;20544;-43
2022/01/01 07:55:42;;;;;;;;;;;21.00;52.90;;;;;;6298295;27;20000;-45
2022/01/01 07:58:44;;;;;;;;;;;21.30;52.90;;;;;;6314390;27;20464;-42
2022/01/01 08:01:45;;;;;;;;;;;21.10;52.90;;;;;;6317693;27;20595;-43
2022/01/01 08:04:47;;;;;;;;;;;21.10;52.90;;;;;;6313409;27;19931;-42
2022/01/01 08:07:48;;;;;;;;;;;21.40;53.10;;;;;;6312376;27;20482;-42
2022/01/01 08:11:06;;;;;;;;;;;21.40;53.10;;;;;;6302912;27;19970;-44
2022/01/01 08:14:07;;;;;;;;;;;21.20;52.80;;;;;;6313910;27;20003;-43
2022/01/01 08:17:08;;;;;;;;;;;21.10;52.80;;;;;;6298254;27;20222;-43
2022/01/01 08:20:10;;;;;;;;;;;21.00;52.80;;;;;;6306430;27;20027;-43
2022/01/01 08:23:12;;;;;;;;;;;21.20;52.80;;;;;;6308289;27;20047;-43
2022/01/01 08:26:14;;;;;;;;;;;21.00;52.80;;;;;;6300399;27;20021;-43
2022/01/01 08:29:16;;;;;;;;;;;21.10;52.90;;;;;;6304181;27;20014;-43
2022/01/01 08:32:17;;;;;;;;;;;21.50;53.00;;;;;;6302363;27;19927;-43
2022/01/01 08:35:19;;;;;;;;;;;21.50;53.10;;;;;;6311115;27;19937;-42
2022/01/01 08:38:20;;;;;;;;;;;21.50;53.00;;;;;;6317178;27;20588;-42
2022/01/01 08:41:22;;;;;;;;;;;21.30;53.00;;;;;;6305311;27;19998;-42
2022/01/01 08:44:23;;;;;;;;;;;21.50;53.00;;;;;;6304092;27;20037;-43
2022/01/01 08:47:26;;;;;;;;;;;21.10;52.80;;;;;;6301419;27;20447;-42
2022/01/01 08:50:27;;;;;;;;;;;21.00;52.80;;;;;;6294589;27;20390;-45
2022/01/01 08:53:29;;;;;;;;;;;21.60;53.00;;;;;;6306720;27;19927;-43
2022/01/01 08:56:31;;;;;;;;;;;21.50;53.00;;;;;;6291589;27;20018;-42
2022/01/01 08:59:32;;;;;;;;;;;21.00;52.60;;;;;;6309314;27;20503;-43
2022/01/01 09:02:33;;;;;;;;;;;21.40;52.80;;;;;;6300724;27;20184;-42
2022/01/01 09:05:35;;;;;;;;;;;21.00;52.80;;;;;;6302706;27;20203;-42
2022/01/01 09:08:46;;;;;;;;;;;21.10;52.80;;;;;;6307926;27;19942;-42
2022/01/01 09:11:47;;;;;;;;;;;21.10;52.70;;;;;;6300136;27;20193;-43
2022/01/01 09:14:49;;;;;;;;;;;21.30;52.60;;;;;;6318590;27;20079;-43
2022/01/01 09:17:51;;;;;;;;;;;21.10;52.50;;;;;;6301944;27;20121;-43
2022/01/01 09:20:52;;;;;;;;;;;21.60;52.70;;;;;;6299613;27;20382;-42
2022/01/01 09:23:54;;;;;;;;;;;21.80;52.70;;;;;;6299184;27;19923;-43
2022/01/01 09:26:56;;;;;;;;;;;21.20;52.20;;;;;;6296161;27;19923;-42
2022/01/01 09:29:57;;;;;;;;;;;21.20;52.20;;;;;;6312152;27;20049;-44
2022/01/01 09:32:58;;;;;;;;;;;21.60;52.30;;;;;;6314421;27;21448;-43
2022/01/01 09:36:01;;;;;;;;;;;21.30;52.00;;;;;;6301144;27;20309;-44
2022/01/01 09:39:03;;;;;;;;;;;21.70;52.10;;;;;;6273024;27;20674;-43
2022/01/01 09:42:05;;;;;;;;;;;21.20;51.70;;;;;;6299048;27;20174;-42
2022/01/01 09:45:07;;;;;;;;;;;21.40;51.80;;;;;;6278835;27;20203;-43
2022/01/01 09:48:09;;;;;;;;;;;21.40;51.60;;;;;;6280759;27;20253;-42
2022/01/01 09:51:14;;;;;;;;;;;21.40;51.70;;;;;;6318825;27;19926;-44
2022/01/01 09:54:15;;;;;;;;;;;21.80;51.80;;;;;;6305470;27;20663;-42
2022/01/01 09:57:17;;;;;;;;;;;21.60;51.60;;;;;;6305806;27;20518;-43
2022/01/01 10:00:19;;;;;;;;;;;21.70;51.60;;;;;;6288459;27;19977;-44
2022/01/01 10:03:26;;;;;;;;;;;21.40;51.40;;;;;;6313271;27;20393;-42
2022/01/01 10:06:29;;;;;;;;;;;21.40;51.30;;;;;;6300072;27;20577;-42
2022/01/01 10:09:31;;;;;;;;;;;21.60;51.40;;;;;;6323047;27;20293;-43
2022/01/01 10:12:41;;;;;;;;;;;21.70;51.50;;;;;;6307326;27;19930;-44
2022/01/01 10:15:42;;;;;;;;;;;21.90;51.40;;;;;;6305919;27;19924;-42
2022/01/01 10:18:44;;;;;;;;;;;21.70;51.40;;;;;;6310079;27;19966;-42
2022/01/01 10:21:54;;;;;;;;;;;21.70;51.30;;;;;;6310480;27;19966;-42
2022/01/01 10:28:21;;;;;;;;;;;22.20;51.40;;;;;;6311400;27;20034;-44
2022/01/01 10:31:23;;;;;;;;;;;21.80;51.20;;;;;;6313097;27;20469;-44
2022/01/01 10:34:26;;;;;;;;;;;21.80;51.20;;;;;;6304047;27;19931;-42
2022/01/01 10:37:28;;;;;;;;;;;21.80;51.10;;;;;;6298624;27;20197;-42
2022/01/01 10:40:30;;;;;;;;;;;22.10;51.30;;;;;;6283794;27;20048;-45
2022/01/01 10:43:35;;;;;;;;;;;21.80;51.10;;;;;;6296983;27;20030;-42
2022/01/01 10:46:36;;;;;;;;;;;22.00;51.00;;;;;;6313788;27;19941;-43
2022/01/01 10:50:02;;;;;;;;;;;21.90;51.00;;;;;;6311900;27;19997;-43
2022/01/01 10:53:11;;;;;;;;;;;21.90;51.00;;;;;;6303628;27;19923;-43
2022/01/01 10:56:16;;;;;;;;;;;22.50;50.90;;;;;;6297130;27;20462;-42
2022/01/01 10:59:28;;;;;;;;;;;22.20;51.00;;;;;;6283374;27;20062;-42
2022/01/01 11:02:31;;;;;;;;;;;22.00;50.90;;;;;;6304732;27;20372;-44
2022/01/01 11:05:33;;;;;;;;;;;22.00;50.90;;;;;;6318584;27;19928;-43
2022/01/01 11:08:35;;;;;;;;;;;22.30;51.00;;;;;;6296025;27;20076;-44
2022/01/01 11:11:37;;;;;;;;;;;21.90;50.70;;;;;;6299425;27;19927;-43
2022/01/01 11:14:39;;;;;;;;;;;22.00;50.80;;;;;;6318449;27;20657;-43
2022/01/01 11:17:42;;;;;;;;;;;22.20;50.90;;;;;;6297914;27;20574;-43
2022/01/01 11:20:43;;;;;;;;;;;22.10;50.70;;;;;;6293637;27;19923;-43
2022/01/01 11:23:46;;;;;;;;;;;22.40;50.90;;;;;;6291689;27;19923;-43
2022/01/01 11:26:48;;;;;;;;;;;22.40;50.90;;;;;;6298629;27;20430;-42
2022/01/01 11:29:52;;;;;;;;;;;22.20;50.70;;;;;;6301205;27;20244;-43
2022/01/01 11:32:57;;;;;;;;;;;22.40;50.90;;;;;;6302390;27;20086;-43
2022/01/01 11:36:00;;;;;;;;;;;22.30;50.70;;;;;;6317258;27;20388;-44
2022/01/01 11:39:03;;;;;;;;;;;22.10;50.60;;;;;;6301670;27;19923;-43
2022/01/01 11:42:08;;;;;;;;;;;22.30;51.30;;;;;;6301932;27;19923;-42
2022/01/01 11:45:10;;;;;;;;;;;22.30;50.60;;;;;;6300289;27;20685;-43
2022/01/01 11:48:26;;;;;;;;;;;22.30;50.70;;;;;;6297953;27;19934;-44
2022/01/01 11:51:31;;;;;;;;;;;22.20;50.50;;;;;;6284221;27;19933;-43
2022/01/01 11:54:34;;;;;;;;;;;22.60;50.60;;;;;;6281390;27;19950;-43
2022/01/01 11:57:36;;;;;;;;;;;22.50;50.60;;;;;;6301586;27;19926;-42
2022/01/01 12:00:55;;;;;;;;;;;22.30;50.60;;;;;;6318240;27;20770;-43
2022/01/01 12:03:57;;;;;;;;;;;22.10;50.40;;;;;;6296208;27;20193;-44
2022/01/01 12:06:59;;;;;;;;;;;22.50;50.60;;;;;;6314500;27;20797;-43
2022/01/01 12:10:12;;;;;;;;;;;22.30;50.40;;;;;;6301587;27;20379;-43
2022/01/01 12:13:13;;;;;;;;;;;22.60;50.50;;;;;;6300208;27;20366;-43
2022/01/01 12:16:20;;;;;;;;;;;22.40;50.60;;;;;;6308190;27;20109;-42
2022/01/01 12:19:23;;;;;;;;;;;22.40;50.40;;;;;;6296853;27;20573;-44
2022/01/01 12:22:25;;;;;;;;;;;22.40;50.40;;;;;;6301343;27;20130;-42
2022/01/01 12:25:27;;;;;;;;;;;22.50;50.50;;;;;;6295453;27;20042;-42
2022/01/01 12:28:32;;;;;;;;;;;22.80;50.60;;;;;;6305552;27;19934;-43
2022/01/01 12:31:34;;;;;;;;;;;22.60;50.50;;;;;;6300860;27;20402;-43
2022/01/01 12:34:36;;;;;;;;;;;22.30;50.30;;;;;;6296386;27;20381;-43
2022/01/01 12:37:38;;;;;;;;;;;22.60;50.50;;;;;;6293186;27;20395;-43
2022/01/01 12:40:55;;;;;;;;;;;22.40;50.40;;;;;;6305548;27;20507;-43
2022/01/01 12:43:57;;;;;;;;;;;22.90;50.50;;;;;;6295768;27;19971;-43
2022/01/01 12:47:01;;;;;;;;;;;22.40;50.30;;;;;;6279882;27;20369;-43
2022/01/01 12:50:04;;;;;;;;;;;22.60;50.30;;;;;;6311796;27;20336;-43
2022/01/01 12:53:06;;;;;;;;;;;22.30;50.20;;;;;;6295966;27;20619;-43
2022/01/01 12:56:08;;;;;;;;;;;22.80;50.40;;;;;;6296364;27;19989;-44
2022/01/01 12:59:10;;;;;;;;;;;22.90;50.50;;;;;;6314461;27;20047;-46
2022/01/01 13:02:13;;;;;;;;;;;22.50;50.20;;;;;;6278889;27;19934;-45
2022/01/01 13:05:15;;;;;;;;;;;22.40;50.10;;;;;;6305813;27;20621;-43
2022/01/01 13:08:16;;;;;;;;;;;22.60;50.30;;;;;;6311213;27;20359;-44
2022/01/01 13:11:17;;;;;;;;;;;22.60;50.20;;;;;;6290407;27;20446;-43
2022/01/01 13:14:20;;;;;;;;;;;23.00;50.40;;;;;;6296888;27;20175;-42
2022/01/01 13:17:24;;;;;;;;;;;22.60;50.20;;;;;;6301213;27;19961;-43
2022/01/01 13:20:25;;;;;;;;;;;22.60;50.20;;;;;;6297176;27;20376;-43
2022/01/01 13:23:27;;;;;;;;;;;22.50;50.10;;;;;;6311965;27;19923;-43
2022/01/01 13:26:28;;;;;;;;;;;22.60;50.20;;;;;;6310276;27;20512;-42
2022/01/01 13:29:30;;;;;;;;;;;22.90;50.30;;;;;;6303894;27;19927;-44
2022/01/01 13:32:35;;;;;;;;;;;22.90;50.30;;;;;;6299182;27;19935;-43
2022/01/01 13:35:36;;;;;;;;;;;22.70;50.10;;;;;;6298874;27;19927;-43
2022/01/01 13:38:37;;;;;;;;;;;22.80;50.20;;;;;;6302668;27;19931;-43
2022/01/01 13:41:40;;;;;;;;;;;22.90;50.20;;;;;;6299457;27;20191;-42
2022/01/01 13:44:43;;;;;;;;;;;23.10;50.30;;;;;;6291548;27;20046;-42
2022/01/01 13:47:45;;;;;;;;;;;22.70;50.10;;;;;;6310308;27;19941;-42
2022/01/01 13:50:47;;;;;;;;;;;23.10;50.30;;;;;;6300566;27;20188;-43
2022/01/01 13:53:49;;;;;;;;;;;22.80;50.10;;;;;;6295769;27;20821;-43
2022/01/01 13:56:54;;;;;;;;;;;23.00;50.20;;;;;;6301664;27;19967;-43
2022/01/01 13:59:57;;;;;;;;;;;23.10;50.20;;;;;;6319704;27;19934;-43
2022/01/01 14:02:59;;;;;;;;;;;22.50;50.50;;;;;;6304963;27;20636;-43
2022/01/01 14:06:01;;;;;;;;;;;23.10;50.20;;;;;;6321200;27;19930;-42
2022/01/01 14:09:04;;;;;;;;;;;23.10;50.20;;;;;;6302961;27;20365;-44
2022/01/01 14:12:10;;;;;;;;;;;22.80;50.10;;;;;;6317112;27;20254;-43
2022/01/01 14:15:12;;;;;;;;;;;23.30;50.30;;;;;;6311647;27;20370;-43
2022/01/01 14:18:25;;;;;;;;;;;22.80;50.00;;;;;;6310645;27;20041;-42
2022/01/01 14:21:26;;;;;;;;;;;23.10;50.20;;;;;;6322099;27;20445;-43
2022/01/01 14:24:28;;;;;;;;;;;22.80;50.00;;;;;;6308679;27;20345;-42
2022/01/01 14:27:29;;;;;;;;;;;22.80;50.00;;;;;;6305004;27;20009;-43
2022/01/01 14:30:31;;;;;;;;;;;23.10;50.10;;;;;;6303354;27;20409;-42
2022/01/01 14:33:34;;;;;;;;;;;23.30;50.20;;;;;;6305269;27;19995;-44
2022/01/01 14:36:39;;;;;;;;;;;23.20;50.20;;;;;;6321279;27;20081;-43
2022/01/01 14:39:40;;;;;;;;;;;23.10;50.10;;;;;;6299447;27;20560;-43
2022/01/01 14:42:42;;;;;;;;;;;22.90;50.00;;;;;;6306716;27;20324;-44
2022/01/01 14:45:43;;;;;;;;;;;23.10;50.10;;;;;;6304540;27;20038;-43
2022/01/01 14:48:48;;;;;;;;;;;22.90;50.60;;;;;;6281624;27;20265;-43
2022/01/01 14:51:55;;;;;;;;;;;22.80;49.90;;;;;;6307957;27;19943;-43
2022/01/01 14:54:59;;;;;;;;;;;22.90;50.00;;;;;;6309230;27;20236;-42
2022/01/01 14:58:02;;;;;;;;;;;22.80;49.90;;;;;;6324465;27;19965;-43
2022/01/01 15:01:03;;;;;;;;;;;23.20;50.10;;;;;;6324542;27;19923;-44
2022/01/01 15:04:11;;;;;;;;;;;23.00;50.00;;;;;;6301318;27;19931;-43
2022/01/01 15:07:13;;;;;;;;;;;22.90;50.00;;;;;;6311369;27;20019;-45
2022/01/01 15:10:16;;;;;;;;;;;23.40;50.20;;;;;;6315005;27;20731;-43
2022/01/01 15:13:17;;;;;;;;;;;22.90;50.00;;;;;;6312959;27;19970;-43
2022/01/01 15:16:19;;;;;;;;;;;23.30;50.20;;;;;;6307525;27;20762;-43
2022/01/01 15:19:21;;;;;;;;;;;23.00;50.00;;;;;;6297242;27;20080;-44
2022/01/01 15:22:27;;;;;;;;;;;23.40;50.20;;;;;;6302444;27;19966;-44
2022/01/01 15:25:29;;;;;;;;;;;22.90;50.00;;;;;;6298013;27;20530;-45
2022/01/01 15:28:30;;;;;;;;;;;23.20;50.10;;;;;;6309672;27;20002;-42
2022/01/01 15:31:38;;;;;;;;;;;23.20;50.20;;;;;;6321194;27;19926;-43
2022/01/01 15:34:43;;;;;;;;;;;23.20;50.10;;;;;;6298512;27;19923;-43
2022/01/01 15:37:53;;;;;;;;;;;23.00;50.10;;;;;;6301427;27;20362;-42
2022/01/01 15:41:01;;;;;;;;;;;23.00;50.00;;;;;;6298384;27;20523;-43
2022/01/01 15:44:02;;;;;;;;;;;23.00;50.00;;;;;;6283919;27;19928;-46
2022/01/01 15:47:04;;;;;;;;;;;23.20;50.20;;;;;;6296838;27;20046;-43
2022/01/01 15:50:06;;;;;;;;;;;23.40;50.30;;;;;;6300062;27;20659;-45
2022/01/01 15:53:09;;;;;;;;;;;23.00;50.00;;;;;;6319876;27;19929;-43
2022/01/01 15:56:14;;;;;;;;;;;23.10;50.10;;;;;;6298401;27;19930;-43
2022/01/01 15:59:17;;;;;;;;;;;23.20;50.20;;;;;;6318101;27;20018;-43
2022/01/01 16:02:24;;;;;;;;;;;23.20;50.20;;;;;;6314910;27;20014;-44
2022/01/01 16:05:36;;;;;;;;;;;22.90;50.00;;;;;;6305842;27;20175;-43
2022/01/01 16:08:39;;;;;;;;;;;22.90;50.10;;;;;;6307932;27;20254;-43
2022/01/01 16:11:42;;;;;;;;;;;23.00;50.10;;;;;;6302276;27;20051;-43
2022/01/01 16:14:49;;;;;;;;;;;22.90;50.10;;;;;;6299710;27;20515;-43
2022/01/01 16:17:51;;;;;;;;;;;23.20;50.20;;;;;;6284673;27;20540;-43
2022/01/01 16:21:06;;;;;;;;;;;22.80;50.00;;;;;;6305591;27;19924;-43
2022/01/01 16:24:08;;;;;;;;;;;22.90;50.10;;;;;;6321367;27;20291;-47
2022/01/01 16:27:09;;;;;;;;;;;23.10;50.30;;;;;;6306961;27;19996;-44
2022/01/01 16:30:11;;;;;;;;;;;23.00;50.30;;;;;;6294395;27;19927;-43
2022/01/01 16:33:13;;;;;;;;;;;23.20;50.30;;;;;;6298891;27;20280;-42
2022/01/01 16:36:19;;;;;;;;;;;23.50;50.50;;;;;;6297443;27;20369;-44
2022/01/01 16:39:20;;;;;;;;;;;22.70;50.10;;;;;;6297531;27;20250;-43
2022/01/01 16:42:27;;;;;;;;;;;22.80;50.20;;;;;;6299577;27;20054;-44
2022/01/01 16:45:33;;;;;;;;;;;23.00;50.20;;;;;;6311250;27;19976;-42
2022/01/01 16:48:37;;;;;;;;;;;22.90;50.40;;;;;;6307358;27;20414;-44
2022/01/01 16:51:41;;;;;;;;;;;22.80;50.20;;;;;;6297299;27;20716;-43
2022/01/01 16:54:44;;;;;;;;;;;23.30;50.50;;;;;;6280207;27;20174;-43
2022/01/01 16:57:48;;;;;;;;;;;22.80;50.30;;;;;;6312422;27;20264;-43
2022/01/01 17:00:50;;;;;;;;;;;22.90;50.30;;;;;;6314652;27;19931;-43
2022/01/01 17:03:57;;;;;;;;;;;23.30;50.60;;;;;;6307737;27;19936;-43
2022/01/01 17:07:00;;;;;;;;;;;23.00;50.30;;;;;;6299333;27;19927;-43
2022/01/01 17:10:03;;;;;;;;;;;22.70;50.20;;;;;;6303600;27;19924;-43
2022/01/01 17:13:05;;;;;;;;;;;23.00;50.40;;;;;;6296635;27;19931;-43
2022/01/01 17:16:08;;;;;;;;;;;22.70;50.30;;;;;;6294127;27;21567;-43
2022/01/01 17:19:13;;;;;;;;;;;23.00;50.60;;;;;;6293469;27;20394;-46
2022/01/01 17:22:33;;;;;;;;;;;22.80;50.50;;;;;;6287533;27;19934;-43
2022/01/01 17:25:55;;;;;;;;;;;22.60;50.40;;;;;;6282204;27;19924;-43
2022/01/01 17:29:00;;;;;;;;;;;22.60;50.50;;;;;;6304034;27;20451;-43
2022/01/01 17:32:02;;;;;;;;;;;22.90;50.70;;;;;;6299435;27;21335;-43
2022/01/01 17:41:41;;;;;;;;;;;22.60;50.60;;;;;;6300808;27;20384;-43
2022/01/01 17:44:49;;;;;;;;;;;22.90;50.80;;;;;;6282924;27;20434;-43
2022/01/01 17:47:52;;;;;;;;;;;22.50;50.60;;;;;;6296101;27;19965;-42
2022/01/01 17:51:02;;;;;;;;;;;22.40;50.70;;;;;;6300154;27;20242;-43
2022/01/01 17:54:05;;;;;;;;;;;22.50;50.80;;;;;;6302340;27;20020;-43
2022/01/01 17:57:07;;;;;;;;;;;22.80;51.00;;;;;;6305564;27;20429;-43